Time;durP1;ratioP1;P1;durP2;ratioP2;P2;SDS_P1;SDS_P2;PMS_P1;PMS_P2;Temp;Humidity;BMP_temperature;BMP_pressure;BME280_temperature;BME280_humidity;BME280_pressure;Samples;Min_cycle;Max_cycle;Signal;HPM_P1;HPM_P2
2021/07/03 00:01:42;;;;;;;11.67;10.67;;;;;;;11.39;100.00;98185.53;4994122;28;20680;-71
2021/07/03 00:04:10;;;;;;;12.17;10.87;;;;;;;11.32;100.00;98178.38;4986336;28;20213;-70
2021/07/03 00:06:38;;;;;;;11.97;10.90;;;;;;;11.28;100.00;98176.06;4985143;28;20236;-73
2021/07/03 00:09:06;;;;;;;12.03;10.83;;;;;;;11.25;100.00;98179.06;4992227;28;20221;-74
2021/07/03 00:11:34;;;;;;;11.63;10.60;;;;;;;11.28;100.00;98170.75;4990322;28;20208;-73
2021/07/03 00:14:04;;;;;;;11.80;10.70;;;;;;;11.20;100.00;98178.72;4986278;28;20201;-71
2021/07/03 00:16:31;;;;;;;11.77;10.77;;;;;;;11.19;100.00;98177.06;4990560;28;20216;-73
2021/07/03 00:19:00;;;;;;;11.83;10.53;;;;;;;11.21;100.00;98179.53;4988948;28;20773;-72
2021/07/03 00:21:28;;;;;;;12.67;11.47;;;;;;;11.12;100.00;98179.53;4987607;28;20212;-73
2021/07/03 00:23:56;;;;;;;12.77;10.80;;;;;;;11.14;100.00;98180.19;4990360;28;20467;-73
2021/07/03 00:26:24;;;;;;;11.93;10.70;;;;;;;11.12;100.00;98176.03;4990613;28;20851;-73
2021/07/03 00:28:52;;;;;;;11.77;10.50;;;;;;;11.12;100.00;98179.53;4990790;28;20232;-72
2021/07/03 00:31:21;;;;;;;12.50;11.50;;;;;;;11.11;100.00;98171.72;4987260;28;20245;-71
2021/07/03 00:33:49;;;;;;;13.07;11.87;;;;;;;11.05;100.00;98170.56;4994639;28;20208;-72
2021/07/03 00:36:17;;;;;;;12.70;11.47;;;;;;;11.04;100.00;98173.38;4987592;28;20225;-72
2021/07/03 00:38:45;;;;;;;12.60;11.40;;;;;;;11.01;100.00;98166.59;4989697;28;20213;-71
2021/07/03 00:41:13;;;;;;;11.87;10.80;;;;;;;11.04;100.00;98166.25;4983323;28;20213;-72
2021/07/03 00:43:41;;;;;;;10.90;10.10;;;;;;;10.95;100.00;98169.84;4983488;28;20217;-71
2021/07/03 00:46:09;;;;;;;12.97;11.67;;;;;;;10.89;100.00;98174.00;4992376;28;20226;-73
2021/07/03 00:48:38;;;;;;;11.57;10.63;;;;;;;10.88;100.00;98175.00;4989042;28;20318;-70
2021/07/03 00:51:06;;;;;;;11.23;10.23;;;;;;;10.86;100.00;98176.97;4984457;28;20225;-72
2021/07/03 00:53:34;;;;;;;12.63;11.53;;;;;;;10.84;100.00;98179.78;4984513;28;20664;-71
2021/07/03 00:56:03;;;;;;;11.53;10.33;;;;;;;10.80;100.00;98172.31;4986836;28;20713;-74
2021/07/03 00:58:31;;;;;;;11.53;10.60;;;;;;;10.77;100.00;98167.31;4985987;28;20213;-71
2021/07/03 01:00:59;;;;;;;12.03;10.93;;;;;;;10.65;100.00;98172.09;4982586;28;20205;-72
2021/07/03 01:03:27;;;;;;;12.27;11.17;;;;;;;10.78;100.00;98175.13;4984974;28;20249;-71
2021/07/03 01:05:56;;;;;;;14.23;11.77;;;;;;;10.69;100.00;98173.44;4982395;28;20229;-72
2021/07/03 01:08:24;;;;;;;11.27;10.23;;;;;;;10.67;100.00;98168.28;4983757;28;20212;-73
2021/07/03 01:10:52;;;;;;;11.37;10.37;;;;;;;10.73;100.00;98171.28;4985861;28;20241;-72
2021/07/03 01:13:26;;;;;;;12.27;10.87;;;;;;;10.79;100.00;98175.94;4984557;28;20201;-70
2021/07/03 01:15:54;;;;;;;11.20;10.20;;;;;;;10.88;100.00;98182.09;4986697;28;20292;-72
2021/07/03 01:18:22;;;;;;;11.30;10.30;;;;;;;10.96;100.00;98182.13;4981482;28;20755;-73
2021/07/03 01:20:53;;;;;;;11.33;10.43;;;;;;;10.95;100.00;98178.66;4984928;28;20544;-74
2021/07/03 01:23:24;;;;;;;12.03;10.93;;;;;;;10.98;100.00;98180.97;4983392;28;20201;-72
2021/07/03 01:25:59;;;;;;;11.17;10.17;;;;;;;11.13;100.00;98180.34;4983205;28;20673;-71
2021/07/03 01:28:27;;;;;;;11.37;10.37;;;;;;;11.08;100.00;98182.66;4984355;28;20216;-73
2021/07/03 01:30:55;;;;;;;11.30;10.30;;;;;;;11.13;100.00;98178.53;4988699;28;20236;-71
2021/07/03 01:33:24;;;;;;;11.30;10.20;;;;;;;11.12;100.00;98174.22;4983508;28;20348;-72
2021/07/03 01:35:52;;;;;;;9.97;9.17;;;;;;;11.12;100.00;98173.38;4984129;28;20690;-71
2021/07/03 01:38:20;;;;;;;11.53;10.30;;;;;;;11.13;100.00;98170.56;4981396;28;20212;-71
2021/07/03 01:40:50;;;;;;;10.73;9.83;;;;;;;11.16;100.00;98172.03;4983093;28;20317;-73
2021/07/03 01:43:22;;;;;;;10.57;9.73;;;;;;;11.22;100.00;98171.41;4986951;28;20213;-71
2021/07/03 01:45:51;;;;;;;10.63;9.63;;;;;;;11.11;100.00;98172.56;4983458;28;20249;-74
2021/07/03 01:48:26;;;;;;;10.13;9.27;;;;;;;11.11;100.00;98169.91;4979954;28;20210;-71
2021/07/03 01:50:55;;;;;;;11.33;9.67;;;;;;;11.11;100.00;98174.38;4991955;28;20232;-71
2021/07/03 01:53:24;;;;;;;9.93;9.13;;;;;;;11.09;100.00;98171.91;4986126;28;20725;-74
2021/07/03 01:55:53;;;;;;;10.20;9.33;;;;;;;11.13;100.00;98172.38;4982674;28;20237;-72
2021/07/03 01:58:22;;;;;;;10.07;9.10;;;;;;;11.12;100.00;98182.19;4982748;28;20554;-73
2021/07/03 02:00:53;;;;;;;11.13;10.13;;;;;;;11.07;100.00;98186.28;4983247;28;20209;-72
2021/07/03 02:03:22;;;;;;;11.03;9.93;;;;;;;11.01;100.00;98179.84;4983142;28;20594;-72
2021/07/03 02:05:50;;;;;;;11.20;10.07;;;;;;;10.99;100.00;98172.03;4988254;28;20235;-73
2021/07/03 02:08:18;;;;;;;11.60;10.60;;;;;;;10.95;100.00;98173.34;4987615;28;20201;-71
2021/07/03 02:10:46;;;;;;;11.03;9.93;;;;;;;10.95;100.00;98168.03;4989156;28;20236;-73
2021/07/03 02:13:16;;;;;;;10.57;9.67;;;;;;;10.92;100.00;98167.53;4987754;28;20356;-72
2021/07/03 02:15:44;;;;;;;10.93;9.93;;;;;;;10.83;100.00;98166.69;4986423;28;20902;-73
2021/07/03 02:18:12;;;;;;;11.67;10.67;;;;;;;10.79;100.00;98162.69;4986438;28;20210;-71
2021/07/03 02:20:40;;;;;;;11.00;9.90;;;;;;;10.75;100.00;98161.34;4986740;28;20217;-74
2021/07/03 02:23:08;;;;;;;10.97;9.93;;;;;;;10.77;100.00;98164.66;4991796;28;20212;-71
2021/07/03 02:25:36;;;;;;;10.40;9.40;;;;;;;10.75;100.00;98164.00;4991109;28;20252;-70
2021/07/03 02:28:05;;;;;;;10.47;9.47;;;;;;;10.70;100.00;98161.84;4985823;28;20670;-73
2021/07/03 02:30:34;;;;;;;11.20;10.20;;;;;;;10.63;100.00;98160.84;4987632;28;20236;-71
2021/07/03 02:33:03;;;;;;;11.83;9.67;;;;;;;10.60;100.00;98172.56;4985810;28;20317;-73
2021/07/03 02:35:31;;;;;;;10.90;9.97;;;;;;;10.58;100.00;98171.91;4987817;28;20296;-71
2021/07/03 02:37:59;;;;;;;11.37;10.37;;;;;;;10.58;100.00;98166.59;4984184;28;20210;-71
2021/07/03 02:40:27;;;;;;;10.70;9.80;;;;;;;10.57;100.00;98170.25;4987017;28;20666;-70
2021/07/03 02:42:55;;;;;;;10.27;9.37;;;;;;;10.46;100.00;98167.88;4989780;28;20711;-71
2021/07/03 02:45:24;;;;;;;11.70;10.50;;;;;;;10.41;100.00;98161.22;4988851;28;20225;-71
2021/07/03 02:47:53;;;;;;;10.90;9.90;;;;;;;10.40;100.00;98166.69;4986515;28;20198;-72
2021/07/03 02:50:22;;;;;;;11.17;10.17;;;;;;;10.32;100.00;98177.22;4987192;28;20236;-73
2021/07/03 02:52:50;;;;;;;12.53;11.23;;;;;;;10.25;100.00;98175.22;4986044;28;20214;-72
2021/07/03 02:55:18;;;;;;;11.40;9.73;;;;;;;10.21;100.00;98176.50;4985567;28;20233;-72
2021/07/03 02:57:45;;;;;;;10.33;9.43;;;;;;;10.16;100.00;98170.84;4985469;28;20841;-72
2021/07/03 03:00:15;;;;;;;11.27;10.27;;;;;;;10.15;100.00;98174.47;4986234;28;20210;-73
2021/07/03 04:23:38;;;;;;;10.67;9.47;;;;;;;10.69;100.00;98186.69;4983483;28;20203;-66
2021/07/03 04:26:06;;;;;;;10.67;9.67;;;;;;;10.75;100.00;98182.56;4985863;28;20922;-66
2021/07/03 04:28:34;;;;;;;11.97;10.83;;;;;;;10.79;100.00;98186.53;4985816;28;20223;-66
2021/07/03 04:31:02;;;;;;;11.67;10.57;;;;;;;10.90;100.00;98188.06;4983930;28;20236;-66
2021/07/03 04:33:30;;;;;;;9.83;8.93;;;;;;;10.97;100.00;98189.09;4988137;28;20252;-69
2021/07/03 04:35:58;;;;;;;11.53;10.50;;;;;;;11.06;100.00;98189.94;4986652;28;20245;-68
2021/07/03 04:38:25;;;;;;;10.97;9.93;;;;;;;11.09;100.00;98187.81;4983293;28;20586;-67
2021/07/03 04:40:55;;;;;;;11.23;10.13;;;;;;;11.27;100.00;98182.38;4985449;28;20236;-66
2021/07/03 04:43:23;;;;;;;11.03;10.03;;;;;;;11.34;100.00;98173.75;4984467;28;20205;-68
2021/07/03 04:45:51;;;;;;;11.50;10.33;;;;;;;11.44;100.00;98172.59;4984354;28;20798;-66
2021/07/03 04:48:19;;;;;;;11.40;10.40;;;;;;;11.53;100.00;98172.59;4985077;28;20209;-67
2021/07/03 04:50:47;;;;;;;10.00;9.17;;;;;;;11.68;100.00;98178.88;4986809;28;20237;-68
2021/07/03 04:53:15;;;;;;;10.47;9.53;;;;;;;11.73;100.00;98175.75;4986899;28;20680;-66
2021/07/03 04:55:43;;;;;;;10.00;9.20;;;;;;;11.79;100.00;98175.06;4994097;28;20240;-66
2021/07/03 04:58:12;;;;;;;10.17;9.27;;;;;;;11.92;100.00;98173.72;4990503;28;20794;-65
2021/07/03 05:00:40;;;;;;;10.13;9.23;;;;;;;11.99;100.00;98174.72;4986442;28;20213;-67
2021/07/03 05:03:08;;;;;;;10.73;9.80;;;;;;;12.18;100.00;98165.59;4982115;28;20212;-67
2021/07/03 05:05:36;;;;;;;10.67;9.73;;;;;;;12.31;100.00;98167.69;4982406;28;20236;-67
2021/07/03 05:08:05;;;;;;;10.00;9.00;;;;;;;12.42;100.00;98170.00;4993265;28;20208;-66
2021/07/03 05:10:33;;;;;;;11.03;10.03;;;;;;;12.73;100.00;98163.06;4988500;28;20229;-67
2021/07/03 05:13:01;;;;;;;13.00;10.37;;;;;;;13.08;100.00;98158.19;4984028;28;20221;-66
2021/07/03 05:15:30;;;;;;;11.03;10.03;;;;;;;13.22;100.00;98161.94;4984639;28;20295;-68
2021/07/03 05:17:58;;;;;;;11.40;10.00;;;;;;;13.39;100.00;98169.78;4986971;28;20213;-66
2021/07/03 05:20:27;;;;;;;11.30;10.40;;;;;;;13.49;100.00;98165.13;4989373;28;20205;-68
2021/07/03 05:22:55;;;;;;;10.53;9.47;;;;;;;13.51;100.00;98167.56;4988335;28;20209;-69
2021/07/03 05:25:23;;;;;;;10.60;9.60;;;;;;;13.64;100.00;98166.97;4983233;28;20555;-68
2021/07/03 05:27:51;;;;;;;9.63;8.73;;;;;;;13.58;100.00;98166.69;4981759;28;20216;-68
2021/07/03 05:30:19;;;;;;;9.70;8.50;;;;;;;13.50;100.00;98171.25;4980736;28;20217;-67
2021/07/03 05:32:48;;;;;;;10.40;9.43;;;;;;;13.68;100.00;98170.94;4982581;28;20218;-68
2021/07/03 05:35:16;;;;;;;10.33;9.43;;;;;;;13.69;100.00;98167.25;4983858;28;20228;-69
2021/07/03 05:37:45;;;;;;;10.07;9.03;;;;;;;13.86;100.00;98174.13;4982644;28;20400;-67
2021/07/03 05:40:16;;;;;;;9.90;9.10;;;;;;;14.00;100.00;98176.97;4990567;28;20209;-67
2021/07/03 05:42:45;;;;;;;12.40;10.47;;;;;;;14.25;97.90;98171.41;4986321;28;20260;-67
2021/07/03 05:45:14;;;;;;;10.17;9.17;;;;;;;14.18;99.08;98171.31;4987194;28;20229;-67
2021/07/03 05:47:49;;;;;;;9.77;8.93;;;;;;;14.31;97.19;98162.66;4983661;28;20228;-68
2021/07/03 05:50:20;;;;;;;10.40;9.30;;;;;;;14.33;96.72;98161.47;4985265;28;20211;-67
2021/07/03 05:52:48;;;;;;;9.07;8.37;;;;;;;14.42;96.59;98166.72;4986660;28;20577;-68
2021/07/03 05:55:16;;;;;;;9.90;8.97;;;;;;;14.49;95.92;98164.97;4986398;28;20221;-68
2021/07/03 05:57:44;;;;;;;10.30;9.17;;;;;;;14.60;95.27;98159.16;4987707;28;20214;-69
2021/07/03 06:00:16;;;;;;;10.93;8.57;;;;;;;14.51;95.21;98156.75;4987685;28;20236;-69
2021/07/03 06:02:43;;;;;;;9.67;8.80;;;;;;;14.46;95.68;98158.16;4986283;28;20469;-67
2021/07/03 06:05:12;;;;;;;9.37;8.53;;;;;;;14.60;95.45;98158.34;4992791;28;20235;-67
2021/07/03 06:07:41;;;;;;;10.27;9.03;;;;;;;14.56;95.81;98152.53;4986546;28;20212;-68
2021/07/03 06:10:11;;;;;;;8.90;8.20;;;;;;;14.66;95.12;98152.25;4986522;28;20213;-67
2021/07/03 06:12:39;;;;;;;9.10;8.13;;;;;;;14.78;94.60;98157.97;4983935;28;20226;-67
2021/07/03 06:15:09;;;;;;;8.90;8.20;;;;;;;14.87;93.53;98153.34;4982879;28;20237;-69
2021/07/03 06:17:37;;;;;;;9.10;8.30;;;;;;;14.98;93.34;98154.69;4984891;28;20620;-66
2021/07/03 06:20:07;;;;;;;9.03;7.93;;;;;;;15.13;92.81;98152.78;4986840;28;21449;-68
2021/07/03 06:22:35;;;;;;;8.73;8.03;;;;;;;15.13;94.02;98151.97;4985868;28;20210;-66
2021/07/03 06:25:07;;;;;;;9.53;8.70;;;;;;;15.22;92.67;98147.34;4986859;28;20485;-68
2021/07/03 06:27:36;;;;;;;9.67;8.77;;;;;;;15.39;93.16;98147.94;4985646;28;20210;-68
2021/07/03 06:30:05;;;;;;;10.53;9.53;;;;;;;15.46;93.17;98149.63;4987208;28;20309;-68
2021/07/03 06:32:34;;;;;;;10.07;9.07;;;;;;;15.61;91.10;98136.19;4985694;28;20229;-68
2021/07/03 06:35:02;;;;;;;10.23;9.23;;;;;;;15.62;90.01;98143.19;4983602;28;20229;-67
2021/07/03 06:37:30;;;;;;;9.73;8.90;;;;;;;15.58;89.70;98144.59;4984517;28;20214;-67
2021/07/03 06:39:58;;;;;;;8.90;8.00;;;;;;;15.82;90.01;98139.84;4990437;28;20239;-69
2021/07/03 06:42:27;;;;;;;9.47;8.67;;;;;;;15.97;89.31;98137.13;4986679;28;20209;-67
2021/07/03 06:44:55;;;;;;;8.53;7.83;;;;;;;16.03;89.15;98130.97;4985350;28;20511;-67
2021/07/03 06:47:23;;;;;;;9.67;8.67;;;;;;;16.31;88.76;98126.63;4978708;28;20217;-67
2021/07/03 06:49:51;;;;;;;10.13;8.30;;;;;;;16.42;87.63;98122.56;4981321;28;20666;-67
2021/07/03 06:52:19;;;;;;;8.83;8.10;;;;;;;16.62;84.89;98128.00;4976755;28;20234;-67
2021/07/03 06:54:47;;;;;;;8.97;8.17;;;;;;;16.71;85.84;98125.97;4978658;28;20240;-67
2021/07/03 06:57:15;;;;;;;9.23;8.37;;;;;;;16.85;86.05;98124.97;4981506;28;20298;-66
2021/07/03 06:59:45;;;;;;;9.40;8.60;;;;;;;16.98;83.94;98126.91;4981773;28;20219;-69
2021/07/03 07:02:13;;;;;;;9.27;8.37;;;;;;;17.15;84.06;98135.38;4984540;28;20210;-67
2021/07/03 07:04:41;;;;;;;8.40;7.73;;;;;;;17.23;83.35;98139.69;4981633;28;20230;-67
2021/07/03 07:07:09;;;;;;;9.03;8.13;;;;;;;17.36;83.10;98129.03;4985986;28;20212;-68
2021/07/03 07:09:37;;;;;;;9.97;8.53;;;;;;;17.58;82.50;98133.38;4986603;28;20223;-67
2021/07/03 07:12:05;;;;;;;9.17;8.00;;;;;;;17.70;82.91;98131.72;4988829;28;20237;-68
2021/07/03 07:14:33;;;;;;;8.10;7.40;;;;;;;17.97;80.58;98133.53;4987512;28;20225;-68
2021/07/03 07:17:03;;;;;;;9.43;8.23;;;;;;;18.00;78.68;98133.16;4994819;28;20673;-67
2021/07/03 07:19:30;;;;;;;8.07;7.07;;;;;;;18.23;77.95;98130.03;4985291;28;20509;-68
2021/07/03 07:21:58;;;;;;;8.03;7.43;;;;;;;18.24;75.96;98131.69;4983919;28;20249;-68
2021/07/03 07:24:26;;;;;;;9.53;8.57;;;;;;;18.46;73.26;98120.66;4989847;28;20606;-68
2021/07/03 07:26:54;;;;;;;8.60;7.90;;;;;;;18.50;74.94;98122.72;4986333;28;20217;-68
2021/07/03 07:29:22;;;;;;;8.37;7.67;;;;;;;18.52;74.13;98120.63;4990225;28;20202;-67
2021/07/03 07:31:50;;;;;;;7.73;7.13;;;;;;;18.62;71.23;98119.34;4981973;28;20332;-68
2021/07/03 07:34:19;;;;;;;8.20;7.40;;;;;;;18.82;71.44;98118.47;4983051;28;20210;-68
2021/07/03 07:36:47;;;;;;;8.23;7.53;;;;;;;18.94;69.17;98114.03;4985947;28;20209;-68
2021/07/03 07:39:15;;;;;;;7.17;6.63;;;;;;;19.00;70.11;98115.09;4982010;28;20206;-67
2021/07/03 07:41:43;;;;;;;8.43;7.73;;;;;;;19.07;69.56;98121.22;4984489;28;20601;-68
2021/07/03 07:44:11;;;;;;;8.13;7.33;;;;;;;19.04;69.79;98117.09;4984235;28;20256;-67
2021/07/03 07:46:39;;;;;;;10.33;7.30;;;;;;;19.27;67.84;98112.22;4985966;28;20240;-68
2021/07/03 07:49:07;;;;;;;7.70;7.00;;;;;;;19.48;66.97;98108.31;4981632;28;20697;-69
2021/07/03 07:51:36;;;;;;;8.40;7.63;;;;;;;19.81;64.91;98104.53;4980601;28;20248;-70
2021/07/03 07:54:05;;;;;;;8.07;7.47;;;;;;;19.70;67.25;98102.56;4978965;28;20213;-70
2021/07/03 07:56:33;;;;;;;14.57;13.20;;;;;;;19.94;61.64;98095.53;4980862;28;20220;-69
2021/07/03 07:59:01;;;;;;;8.43;7.63;;;;;;;20.07;59.87;98097.28;4976380;28;20292;-68
2021/07/03 08:01:29;;;;;;;8.57;7.87;;;;;;;19.92;61.19;98097.63;4981525;28;20589;-70
2021/07/03 08:03:57;;;;;;;8.70;8.00;;;;;;;19.75;62.60;98091.97;4976688;28;20269;-70
2021/07/03 08:06:25;;;;;;;7.77;7.07;;;;;;;19.94;63.45;98099.06;4980087;28;20226;-71
2021/07/03 08:08:54;;;;;;;7.87;7.27;;;;;;;20.25;60.99;98093.78;4977652;28;20201;-70
2021/07/03 08:11:23;;;;;;;7.90;7.10;;;;;;;20.05;60.48;98094.81;4983965;28;20268;-74
2021/07/03 08:13:51;;;;;;;8.27;7.47;;;;;;;20.29;59.77;98086.91;4990841;28;20253;-70
2021/07/03 08:16:19;;;;;;;7.60;7.00;;;;;;;20.17;61.15;98096.78;4996264;28;20231;-70
2021/07/03 08:18:47;;;;;;;7.40;6.90;;;;;;;20.39;60.80;98091.75;4990640;28;20346;-70
2021/07/03 08:21:16;;;;;;;8.03;7.43;;;;;;;20.60;59.44;98089.63;4983917;28;20201;-73
2021/07/03 08:23:44;;;;;;;7.97;7.37;;;;;;;20.88;57.96;98085.56;4990219;28;20209;-71
2021/07/03 08:26:14;;;;;;;7.90;7.30;;;;;;;20.82;58.18;98088.13;4981301;28;20225;-72
2021/07/03 08:28:42;;;;;;;6.77;6.27;;;;;;;20.59;57.98;98091.50;4983332;28;20209;-72
2021/07/03 08:31:10;;;;;;;12.17;11.27;;;;;;;20.63;57.38;98084.63;4983476;28;20201;-71
2021/07/03 08:33:38;;;;;;;11.63;10.70;;;;;;;20.93;56.13;98093.78;4983770;28;20650;-72
2021/07/03 08:36:06;;;;;;;7.77;7.17;;;;;;;21.14;56.28;98086.22;4983904;28;20225;-72
2021/07/03 08:38:34;;;;;;;7.67;7.07;;;;;;;21.14;57.20;98088.94;4983819;28;20205;-72
2021/07/03 08:41:02;;;;;;;8.10;7.37;;;;;;;21.20;56.33;98088.81;4981424;28;20303;-72
2021/07/03 08:43:33;;;;;;;7.43;6.83;;;;;;;21.38;55.79;98081.72;4983142;28;20221;-69
2021/07/03 08:46:01;;;;;;;7.60;7.10;;;;;;;21.95;52.53;98072.25;4979508;28;20313;-72
2021/07/03 08:48:29;;;;;;;7.60;7.00;;;;;;;21.68;54.99;98070.03;4983211;28;20219;-71
2021/07/03 08:50:59;;;;;;;6.93;6.43;;;;;;;21.80;54.29;98068.16;4983974;28;20240;-70
2021/07/03 08:53:27;;;;;;;7.93;7.30;;;;;;;21.31;56.89;98072.91;4982389;28;20245;-69
2021/07/03 08:55:55;;;;;;;11.80;10.73;;;;;;;21.64;55.04;98061.59;4983703;28;20237;-72
2021/07/03 08:58:23;;;;;;;8.17;7.57;;;;;;;21.59;55.30;98066.00;4979319;28;20205;-72
2021/07/03 09:00:52;;;;;;;12.90;11.80;;;;;;;21.70;54.03;98065.25;4983093;28;20229;-72
2021/07/03 09:03:22;;;;;;;9.57;8.87;;;;;;;21.52;54.38;98066.13;4981414;28;20213;-72
2021/07/03 09:05:51;;;;;;;7.40;6.90;;;;;;;21.05;56.21;98067.72;4982466;28;20240;-72
2021/07/03 09:08:20;;;;;;;7.27;6.67;;;;;;;20.67;57.78;98066.97;4979951;28;20218;-71
2021/07/03 09:10:48;;;;;;;7.40;6.70;;;;;;;20.50;59.48;98064.06;4985143;28;20220;-72
2021/07/03 09:13:20;;;;;;;7.87;7.27;;;;;;;20.46;59.46;98062.09;4981682;28;20718;-72
2021/07/03 09:15:48;;;;;;;7.93;7.23;;;;;;;20.63;58.80;98063.09;4981335;28;20241;-72
2021/07/03 09:18:18;;;;;;;7.23;6.67;;;;;;;21.25;56.42;98063.88;4983544;28;20296;-71
2021/07/03 09:20:52;;;;;;;7.67;7.07;;;;;;;21.66;53.19;98069.47;4980075;28;20715;-73
2021/07/03 09:23:21;;;;;;;8.20;7.37;;;;;;;21.85;52.27;98066.63;4982620;28;20216;-71
2021/07/03 09:25:50;;;;;;;6.60;6.20;;;;;;;22.21;50.99;98062.00;4980738;28;20233;-71
2021/07/03 09:28:20;;;;;;;7.30;6.80;;;;;;;22.22;51.15;98067.19;4982973;28;20202;-73
2021/07/03 09:30:50;;;;;;;7.07;6.57;;;;;;;22.22;51.43;98059.09;4982399;28;20228;-72
2021/07/03 09:33:21;;;;;;;6.93;6.43;;;;;;;22.21;51.67;98062.00;4985089;28;20283;-68
2021/07/03 09:35:56;;;;;;;7.10;6.50;;;;;;;21.90;51.94;98058.66;4981693;28;20242;-73
2021/07/03 09:38:32;;;;;;;6.57;6.07;;;;;;;21.72;51.56;98062.28;4980203;28;20213;-72
2021/07/03 09:41:11;;;;;;;6.13;5.73;;;;;;;21.39;53.69;98053.69;4980830;28;20213;-72
2021/07/03 09:43:42;;;;;;;6.37;5.77;;;;;;;21.66;52.15;98047.88;4980350;28;20689;-72
2021/07/03 09:46:10;;;;;;;6.50;6.00;;;;;;;22.25;51.36;98053.19;4982613;28;20225;-69
2021/07/03 09:48:49;;;;;;;7.30;6.53;;;;;;;22.31;51.55;98054.09;4982592;28;20688;-72
2021/07/03 09:51:17;;;;;;;7.07;6.47;;;;;;;22.53;48.86;98048.09;4979015;28;20219;-72
2021/07/03 09:53:46;;;;;;;9.47;8.57;;;;;;;22.91;49.36;98045.78;4983558;28;20229;-72
2021/07/03 09:56:15;;;;;;;7.17;6.67;;;;;;;23.26;48.84;98044.78;4986457;28;20221;-72
2021/07/03 09:58:45;;;;;;;7.20;6.57;;;;;;;23.22;49.65;98036.34;4980035;28;20213;-74
2021/07/03 10:01:13;;;;;;;7.50;6.37;;;;;;;23.10;48.57;98039.13;4985380;28;20206;-71
2021/07/03 10:03:43;;;;;;;7.07;6.57;;;;;;;23.11;47.18;98040.75;4980596;28;20208;-73
2021/07/03 10:06:14;;;;;;;7.20;6.60;;;;;;;23.22;46.65;98035.50;4983036;28;20724;-70
2021/07/03 10:08:44;;;;;;;6.97;6.33;;;;;;;23.19;46.64;98031.44;4981779;28;20380;-74
2021/07/03 10:11:17;;;;;;;6.90;6.33;;;;;;;23.28;45.24;98031.84;4982683;28;20210;-71
2021/07/03 10:13:45;;;;;;;7.30;6.80;;;;;;;23.30;45.95;98021.63;4978930;28;20335;-73
2021/07/03 10:16:15;;;;;;;6.80;6.30;;;;;;;23.21;46.80;98020.34;4982650;28;20605;-72
2021/07/03 10:18:44;;;;;;;6.27;5.73;;;;;;;23.46;43.32;98016.44;4986023;28;20212;-73
2021/07/03 10:21:16;;;;;;;5.83;5.43;;;;;;;23.34;43.24;98014.66;4980503;28;20623;-74
2021/07/03 10:23:45;;;;;;;11.73;10.77;;;;;;;23.21;42.62;98018.50;4982696;28;20206;-72
2021/07/03 10:26:14;;;;;;;14.47;13.00;;;;;;;23.15;44.03;98007.81;4988338;28;20233;-72
2021/07/03 10:28:42;;;;;;;16.10;14.77;;;;;;;23.07;45.58;98011.75;4985982;28;20209;-72
2021/07/03 10:31:12;;;;;;;10.80;10.00;;;;;;;23.08;44.65;98019.63;4981559;28;20206;-69
2021/07/03 10:33:46;;;;;;;6.50;6.00;;;;;;;23.00;45.89;98017.34;4984419;28;20256;-71
2021/07/03 10:36:27;;;;;;;6.37;5.83;;;;;;;22.64;47.15;98011.31;4986840;28;20225;-70
2021/07/03 10:38:56;;;;;;;6.03;5.63;;;;;;;22.23;49.45;98014.84;4984136;28;20220;-73
2021/07/03 10:41:25;;;;;;;6.77;6.37;;;;;;;22.62;48.89;98003.44;4986169;28;20205;-72
2021/07/03 10:43:54;;;;;;;6.43;6.03;;;;;;;22.90;48.41;98009.88;4985518;28;20210;-72
2021/07/03 10:46:30;;;;;;;6.67;6.17;;;;;;;22.60;49.68;97997.44;4988568;28;20701;-72
2021/07/03 10:49:04;;;;;;;6.60;6.20;;;;;;;22.39;49.26;97999.75;4985646;28;20220;-72
2021/07/03 10:51:35;;;;;;;7.03;6.43;;;;;;;22.62;49.29;98008.03;4984993;28;20686;-72
2021/07/03 10:54:18;;;;;;;6.60;6.00;;;;;;;24.05;43.16;98004.28;4983207;28;20229;-73
2021/07/03 10:56:49;;;;;;;6.70;6.20;;;;;;;24.22;43.98;97998.78;4984808;28;20724;-72
2021/07/03 10:59:19;;;;;;;5.90;5.50;;;;;;;24.41;43.38;97997.41;4983242;28;20411;-71
2021/07/03 11:01:47;;;;;;;6.23;5.83;;;;;;;25.20;40.68;97993.53;4982964;28;20217;-73
2021/07/03 11:04:19;;;;;;;6.00;5.60;;;;;;;25.36;42.17;97995.28;4985110;28;20595;-71
2021/07/03 11:06:49;;;;;;;29.83;27.83;;;;;;;25.55;39.37;97984.84;4987750;28;20202;-70
2021/07/03 11:09:25;;;;;;;6.67;6.17;;;;;;;26.48;37.22;97983.59;4985220;28;20705;-71
2021/07/03 11:11:56;;;;;;;7.47;6.97;;;;;;;26.51;36.87;97981.16;4981748;28;20209;-72
2021/07/03 11:14:24;;;;;;;5.83;5.43;;;;;;;26.26;37.66;97980.00;4985506;28;20244;-71
2021/07/03 11:16:53;;;;;;;5.80;5.50;;;;;;;26.65;37.71;97977.91;4985438;28;20232;-72
2021/07/03 11:19:24;;;;;;;6.67;6.17;;;;;;;26.20;37.81;97974.84;4984426;28;20275;-69
2021/07/03 11:21:53;;;;;;;5.97;5.67;;;;;;;26.38;36.77;97968.91;4985583;28;20213;-71
2021/07/03 11:24:21;;;;;;;5.57;5.27;;;;;;;26.95;36.23;97969.00;4984213;28;20302;-71
2021/07/03 11:26:49;;;;;;;6.00;5.43;;;;;;;25.90;37.96;97962.75;4984921;28;20209;-71
2021/07/03 11:29:25;;;;;;;6.57;5.97;;;;;;;25.67;38.10;97964.81;4982031;28;20442;-71
2021/07/03 11:32:04;;;;;;;5.80;5.40;;;;;;;25.86;39.46;97965.19;4984225;28;20213;-70
2021/07/03 11:34:33;;;;;;;5.90;5.50;;;;;;;25.68;38.91;97961.03;4980852;28;20261;-72
2021/07/03 11:37:02;;;;;;;6.00;5.60;;;;;;;26.14;38.76;97954.97;4983828;28;20367;-70
2021/07/03 11:39:31;;;;;;;5.63;5.33;;;;;;;26.21;39.21;97943.91;4983835;28;20778;-72
2021/07/03 11:42:00;;;;;;;5.47;5.00;;;;;;;25.66;40.27;97955.03;4987227;28;20205;-72
2021/07/03 11:44:28;;;;;;;5.67;5.30;;;;;;;24.95;39.25;97954.31;4985311;28;20650;-71
2021/07/03 11:46:56;;;;;;;5.33;4.93;;;;;;;24.61;39.11;97952.63;4985273;28;20202;-71
2021/07/03 11:49:24;;;;;;;5.47;5.17;;;;;;;23.97;40.72;97941.38;4982006;28;20717;-71
2021/07/03 11:52:02;;;;;;;4.97;4.67;;;;;;;24.62;40.04;97948.03;4984296;28;20225;-71
2021/07/03 11:54:30;;;;;;;5.80;4.67;;;;;;;24.83;38.91;97943.63;4984447;28;20363;-71
2021/07/03 11:56:59;;;;;;;5.43;5.13;;;;;;;25.10;37.95;97935.44;4983528;28;20213;-70
2021/07/03 11:59:28;;;;;;;5.10;4.80;;;;;;;26.05;37.08;97934.84;4984436;28;20214;-69
2021/07/03 12:01:56;;;;;;;5.67;5.30;;;;;;;25.88;36.84;97927.72;4984922;28;20213;-69
2021/07/03 12:04:25;;;;;;;5.83;5.43;;;;;;;25.51;38.04;97931.34;4983825;28;20752;-71
2021/07/03 12:07:01;;;;;;;5.70;5.30;;;;;;;26.48;38.62;97927.38;4981023;28;20210;-72
2021/07/03 12:09:36;;;;;;;5.40;5.10;;;;;;;26.94;36.70;97934.75;4982726;28;20247;-71
2021/07/03 12:12:04;;;;;;;5.87;5.47;;;;;;;27.48;36.02;97926.22;4980457;28;20213;-72
2021/07/03 12:14:35;;;;;;;5.87;5.47;;;;;;;27.63;36.78;97919.94;4983542;28;20237;-71
2021/07/03 12:17:03;;;;;;;5.17;4.87;;;;;;;27.02;36.18;97920.59;4982949;28;20198;-73
2021/07/03 12:19:31;;;;;;;5.90;5.40;;;;;;;26.22;37.15;97907.50;4983538;28;20594;-72
2021/07/03 12:22:07;;;;;;;5.43;5.13;;;;;;;25.58;38.41;97921.13;4986967;28;20232;-71
2021/07/03 12:24:35;;;;;;;5.53;5.20;;;;;;;26.36;37.10;97913.25;4983891;28;20769;-71
2021/07/03 12:27:03;;;;;;;6.30;5.70;;;;;;;26.95;36.08;97911.91;4983540;28;20223;-71
2021/07/03 12:29:35;;;;;;;5.60;5.20;;;;;;;27.09;37.39;97919.50;4983908;28;20389;-71
2021/07/03 12:32:12;;;;;;;6.73;6.13;;;;;;;26.96;36.36;97902.69;4984259;28;20552;-71
2021/07/03 12:34:41;;;;;;;5.43;5.13;;;;;;;27.91;35.33;97904.03;4980957;28;20237;-73
2021/07/03 12:37:12;;;;;;;6.30;5.80;;;;;;;27.99;35.76;97893.38;4982128;28;20682;-71
2021/07/03 12:39:41;;;;;;;6.10;5.60;;;;;;;27.92;33.79;97894.75;4986870;28;20360;-72
2021/07/03 12:42:11;;;;;;;14.10;12.90;;;;;;;27.44;34.85;97898.75;4982840;28;20646;-71
2021/07/03 12:44:40;;;;;;;6.27;5.87;;;;;;;27.81;33.95;97892.09;4980398;28;20736;-71
2021/07/03 12:47:11;;;;;;;5.67;5.20;;;;;;;28.07;32.81;97891.97;4980123;28;20324;-71
2021/07/03 12:49:41;;;;;;;5.63;5.13;;;;;;;27.34;34.77;97896.06;4979144;28;20961;-71
2021/07/03 12:52:12;;;;;;;6.10;5.70;;;;;;;27.18;35.39;97898.00;4979145;28;20686;-68
2021/07/03 12:54:39;;;;;;;5.50;5.10;;;;;;;27.47;33.52;97892.75;4982711;28;20252;-72